Time;durP1;ratioP1;P1;durP2;ratioP2;P2;SDS_P1;SDS_P2;PMS_P1;PMS_P2;Temp;Humidity;BMP_temperature;BMP_pressure;BME280_temperature;BME280_humidity;BME280_pressure;Samples;Min_cycle;Max_cycle;Signal;HPM_P1;HPM_P2
2022/03/29 00:01:59;;;;;;;39.08;29.30;;;;;;;;;;5052813;28;20044;-61
2022/03/29 00:04:25;;;;;;;49.53;32.42;;;;;;;;;;5068962;28;20064;-62
2022/03/29 00:06:51;;;;;;;48.90;32.53;;;;;;;;;;5068292;28;20111;-62
2022/03/29 00:09:17;;;;;;;43.42;29.10;;;;;;;;;;5070367;28;20049;-61
2022/03/29 00:11:44;;;;;;;40.63;29.77;;;;;;;;;;5069044;28;20494;-61
2022/03/29 00:14:12;;;;;;;48.30;34.10;;;;;;;;;;5068824;28;20049;-63
2022/03/29 00:16:39;;;;;;;55.97;39.03;;;;;;;;;;5068921;28;20036;-62
2022/03/29 00:19:05;;;;;;;47.75;34.67;;;;;;;;;;5070182;28;20430;-61
2022/03/29 00:21:31;;;;;;;42.28;30.85;;;;;;;;;;5069080;28;20580;-62
2022/03/29 00:23:57;;;;;;;38.53;27.33;;;;;;;;;;5051394;28;20032;-63
2022/03/29 00:26:23;;;;;;;43.17;29.52;;;;;;;;;;5069726;28;20041;-63
2022/03/29 00:28:49;;;;;;;42.95;29.05;;;;;;;;;;5069144;28;20044;-62
2022/03/29 00:31:19;;;;;;;38.58;29.73;;;;;;;;;;5070040;28;20036;-61
2022/03/29 00:33:49;;;;;;;40.83;28.40;;;;;;;;;;5051659;28;20102;-64
2022/03/29 00:36:15;;;;;;;40.58;27.85;;;;;;;;;;5066206;28;20037;-64
2022/03/29 00:38:41;;;;;;;42.15;29.63;;;;;;;;;;5066308;28;20123;-63
2022/03/29 00:41:08;;;;;;;44.10;29.75;;;;;;;;;;5066408;28;20097;-63
2022/03/29 00:43:34;;;;;;;39.80;29.48;;;;;;;;;;5067264;28;20406;-64
2022/03/29 00:46:00;;;;;;;41.58;29.23;;;;;;;;;;5049873;28;20049;-62
2022/03/29 00:48:26;;;;;;;45.42;30.83;;;;;;;;;;5067606;28;20044;-63
2022/03/29 00:50:54;;;;;;;44.67;31.80;;;;;;;;;;5066352;28;20078;-62
2022/03/29 00:53:24;;;;;;;45.30;32.28;;;;;;;;;;5057649;28;20040;-63
2022/03/29 00:55:52;;;;;;;43.67;31.02;;;;;;;;;;5064767;28;20063;-62
2022/03/29 00:58:18;;;;;;;40.30;30.63;;;;;;;;;;5064346;28;20037;-64
2022/03/29 01:00:46;;;;;;;41.58;30.48;;;;;;;;;;5067718;28;20037;-63
2022/03/29 01:03:12;;;;;;;37.13;29.75;;;;;;;;;;5064487;28;20042;-63
2022/03/29 01:05:38;;;;;;;40.95;29.05;;;;;;;;;;5066020;28;20178;-63
2022/03/29 01:08:05;;;;;;;41.33;30.08;;;;;;;;;;5064983;28;20029;-62
2022/03/29 01:10:31;;;;;;;41.45;30.48;;;;;;;;;;5067322;28;20045;-63
2022/03/29 01:12:58;;;;;;;42.42;32.00;;;;;;;;;;5066203;28;20143;-62
2022/03/29 01:15:26;;;;;;;39.17;29.13;;;;;;;;;;5047674;28;20051;-63
2022/03/29 01:17:53;;;;;;;42.38;32.67;;;;;;;;;;5066006;28;20114;-63
2022/03/29 01:20:24;;;;;;;40.22;30.10;;;;;;;;;;5065646;28;20040;-64
2022/03/29 01:22:51;;;;;;;43.97;31.23;;;;;;;;;;5065233;28;20063;-63
2022/03/29 01:25:24;;;;;;;44.25;29.77;;;;;;;;;;5063896;28;20045;-62
2022/03/29 01:27:51;;;;;;;38.05;30.50;;;;;;;;;;5068022;28;20385;-64
2022/03/29 01:30:18;;;;;;;39.40;29.92;;;;;;;;;;5049935;28;20122;-62
2022/03/29 01:32:45;;;;;;;40.80;30.50;;;;;;;;;;5069358;28;20036;-63
2022/03/29 01:35:11;;;;;;;44.53;33.03;;;;;;;;;;5072130;28;20072;-61
2022/03/29 01:37:37;;;;;;;45.65;33.33;;;;;;;;;;5073771;28;20032;-63
2022/03/29 01:40:08;;;;;;;52.15;34.90;;;;;;;;;;5072854;28;20106;-62
2022/03/29 01:42:34;;;;;;;47.58;34.13;;;;;;;;;;5058068;28;20102;-63
2022/03/29 01:45:00;;;;;;;46.38;31.92;;;;;;;;;;5073916;28;20521;-62
2022/03/29 01:47:26;;;;;;;44.50;33.35;;;;;;;;;;5074724;28;20041;-61
2022/03/29 01:49:53;;;;;;;49.58;32.85;;;;;;;;;;5075534;28;20033;-64
2022/03/29 01:52:19;;;;;;;45.65;32.20;;;;;;;;;;5074794;28;20081;-61
2022/03/29 01:54:46;;;;;;;47.25;32.60;;;;;;;;;;5073453;28;20088;-62
2022/03/29 01:57:12;;;;;;;46.08;32.97;;;;;;;;;;5073914;28;20390;-61
2022/03/29 02:02:31;;;;;;;43.08;33.05;;;;;;;;;;5083017;28;20398;-63
2022/03/29 02:04:57;;;;;;;44.30;32.15;;;;;;;;;;5074400;28;20044;-62
2022/03/29 02:07:23;;;;;;;47.47;32.08;;;;;;;;;;5075562;28;20299;-62
2022/03/29 02:09:49;;;;;;;48.95;33.10;;;;;;;;;;5057902;28;20147;-62
2022/03/29 02:12:15;;;;;;;46.25;33.70;;;;;;;;;;5074132;28;20551;-63
2022/03/29 02:14:41;;;;;;;52.13;34.08;;;;;;;;;;5073945;28;20062;-62
2022/03/29 02:17:08;;;;;;;49.25;33.55;;;;;;;;;;5074474;28;20075;-62
2022/03/29 02:19:34;;;;;;;50.50;33.67;;;;;;;;;;5055803;28;20046;-61
2022/03/29 02:22:00;;;;;;;43.75;31.60;;;;;;;;;;5057928;28;20040;-63
2022/03/29 02:24:26;;;;;;;44.65;33.03;;;;;;;;;;5040369;28;20127;-62
2022/03/29 02:26:52;;;;;;;50.65;32.92;;;;;;;;;;5074345;28;20526;-62
2022/03/29 02:29:18;;;;;;;52.60;33.63;;;;;;;;;;5073275;28;20105;-61
2022/03/29 02:31:44;;;;;;;53.25;33.05;;;;;;;;;;5075609;28;20040;-62
2022/03/29 02:34:10;;;;;;;48.05;31.92;;;;;;;;;;5073953;28;20123;-63
2022/03/29 02:36:36;;;;;;;49.55;34.03;;;;;;;;;;5073962;28;20091;-63
2022/03/29 02:39:02;;;;;;;52.20;32.85;;;;;;;;;;5073884;28;20041;-61
2022/03/29 02:41:28;;;;;;;48.25;31.83;;;;;;;;;;5083809;28;20390;-61
2022/03/29 02:43:56;;;;;;;46.83;32.08;;;;;;;;;;5075066;28;20106;-61
2022/03/29 02:46:22;;;;;;;49.58;31.60;;;;;;;;;;5070692;28;20045;-63
2022/03/29 02:48:48;;;;;;;51.22;32.28;;;;;;;;;;5072353;28;20087;-61
2022/03/29 02:51:14;;;;;;;45.20;31.45;;;;;;;;;;5071200;28;20398;-61
2022/03/29 02:53:40;;;;;;;48.53;30.98;;;;;;;;;;5054319;28;20046;-61
2022/03/29 02:56:06;;;;;;;46.97;30.92;;;;;;;;;;5070202;28;20041;-62
2022/03/29 02:58:33;;;;;;;51.30;32.30;;;;;;;;;;5070511;28;20504;-61
2022/03/29 03:00:59;;;;;;;45.83;30.65;;;;;;;;;;5071946;28;20048;-62
2022/03/29 03:03:26;;;;;;;46.70;31.25;;;;;;;;;;5054057;28;20044;-62
2022/03/29 03:05:52;;;;;;;48.45;32.20;;;;;;;;;;5053167;28;20040;-62
2022/03/29 03:08:18;;;;;;;46.42;29.73;;;;;;;;;;5071659;28;20120;-62
2022/03/29 03:10:44;;;;;;;47.88;30.75;;;;;;;;;;5070624;28;20041;-62
2022/03/29 03:13:11;;;;;;;45.58;29.92;;;;;;;;;;5071559;28;20033;-62
2022/03/29 03:15:37;;;;;;;48.55;31.02;;;;;;;;;;5071731;28;20522;-62
2022/03/29 03:18:03;;;;;;;45.88;30.80;;;;;;;;;;5070072;28;20111;-62
2022/03/29 03:20:30;;;;;;;52.13;31.83;;;;;;;;;;5070074;28;20036;-62
2022/03/29 03:22:56;;;;;;;48.03;30.35;;;;;;;;;;5071796;28;20051;-62
2022/03/29 03:25:22;;;;;;;49.25;31.27;;;;;;;;;;5068513;28;20037;-63
2022/03/29 03:27:49;;;;;;;49.63;32.30;;;;;;;;;;5050674;28;20056;-64
2022/03/29 03:30:16;;;;;;;49.22;31.60;;;;;;;;;;5068537;28;20048;-63
2022/03/29 03:32:43;;;;;;;50.00;32.13;;;;;;;;;;5067293;28;20039;-63
2022/03/29 03:35:10;;;;;;;54.85;32.65;;;;;;;;;;5069098;28;20115;-62
2022/03/29 03:37:36;;;;;;;49.13;32.15;;;;;;;;;;5067416;28;20738;-63
2022/03/29 03:40:06;;;;;;;50.15;31.40;;;;;;;;;;5069153;28;20133;-63
2022/03/29 03:42:32;;;;;;;47.42;32.25;;;;;;;;;;5067418;28;20506;-63
2022/03/29 03:44:59;;;;;;;51.88;33.40;;;;;;;;;;5068952;28;20084;-62
2022/03/29 03:47:26;;;;;;;47.72;32.03;;;;;;;;;;5068958;28;20052;-62
2022/03/29 03:49:52;;;;;;;46.53;32.22;;;;;;;;;;5066873;28;20127;-63
2022/03/29 03:52:18;;;;;;;46.78;30.88;;;;;;;;;;5067695;28;20033;-63
2022/03/29 03:54:45;;;;;;;46.72;30.88;;;;;;;;;;5068661;28;20072;-62
2022/03/29 03:57:11;;;;;;;48.30;31.55;;;;;;;;;;5034330;28;20587;-63
2022/03/29 03:59:37;;;;;;;48.88;31.58;;;;;;;;;;5050535;28;20147;-62
2022/03/29 04:02:04;;;;;;;45.60;30.73;;;;;;;;;;5068727;28;20066;-63
2022/03/29 04:04:30;;;;;;;53.53;32.20;;;;;;;;;;5068426;28;20083;-63
2022/03/29 04:06:56;;;;;;;51.63;32.97;;;;;;;;;;5066530;28;20044;-63
2022/03/29 04:09:23;;;;;;;47.67;31.17;;;;;;;;;;5050475;28;20414;-63
2022/03/29 04:11:49;;;;;;;48.50;32.03;;;;;;;;;;5067901;28;20064;-64
2022/03/29 04:14:16;;;;;;;45.28;31.98;;;;;;;;;;5067237;28;20087;-63
2022/03/29 04:16:42;;;;;;;48.40;34.00;;;;;;;;;;5048997;28;20517;-64
2022/03/29 04:19:08;;;;;;;50.85;32.50;;;;;;;;;;5066893;28;20032;-63
2022/03/29 04:21:34;;;;;;;57.45;34.63;;;;;;;;;;5067652;28;20086;-63
2022/03/29 04:24:00;;;;;;;53.85;33.95;;;;;;;;;;5068161;28;20123;-62
2022/03/29 04:26:26;;;;;;;50.53;34.17;;;;;;;;;;5066476;28;20063;-63
2022/03/29 04:28:52;;;;;;;52.83;32.15;;;;;;;;;;5066440;28;20086;-62
2022/03/29 04:31:18;;;;;;;52.58;32.63;;;;;;;;;;5062147;28;20040;-63
2022/03/29 04:33:45;;;;;;;50.83;34.00;;;;;;;;;;5068667;28;20039;-63
2022/03/29 04:36:11;;;;;;;57.75;35.05;;;;;;;;;;5067223;28;20106;-62
2022/03/29 04:38:37;;;;;;;54.25;34.53;;;;;;;;;;5069845;28;20083;-61
2022/03/29 04:41:05;;;;;;;50.58;34.15;;;;;;;;;;5069200;28;20059;-62
2022/03/29 04:43:31;;;;;;;57.58;35.55;;;;;;;;;;5068093;28;20391;-62
2022/03/29 04:45:57;;;;;;;49.92;32.97;;;;;;;;;;5069854;28;20033;-61
2022/03/29 04:48:23;;;;;;;56.53;34.60;;;;;;;;;;5069454;28;20089;-63
2022/03/29 04:50:49;;;;;;;52.85;33.15;;;;;;;;;;5069858;28;20117;-61
2022/03/29 04:53:15;;;;;;;50.35;34.30;;;;;;;;;;5066328;28;20095;-62
2022/03/29 04:55:41;;;;;;;54.65;34.97;;;;;;;;;;5084746;28;20043;-63
2022/03/29 04:58:08;;;;;;;50.50;34.45;;;;;;;;;;5066734;28;20071;-63
2022/03/29 05:00:34;;;;;;;51.22;33.58;;;;;;;;;;5067565;28;20066;-63
2022/03/29 05:03:00;;;;;;;50.05;34.67;;;;;;;;;;5063939;28;20040;-62
2022/03/29 05:05:26;;;;;;;53.55;35.63;;;;;;;;;;5047992;28;20045;-63
2022/03/29 05:07:52;;;;;;;49.83;34.45;;;;;;;;;;5048756;28;20490;-63
2022/03/29 05:10:18;;;;;;;57.85;35.65;;;;;;;;;;5067058;28;20058;-64
2022/03/29 05:12:45;;;;;;;49.30;34.03;;;;;;;;;;5066890;28;20037;-63
2022/03/29 05:15:12;;;;;;;50.10;33.55;;;;;;;;;;5067986;28;20419;-63
2022/03/29 05:17:39;;;;;;;51.75;34.15;;;;;;;;;;5049855;28;20413;-63
2022/03/29 05:20:06;;;;;;;47.97;33.20;;;;;;;;;;5066350;28;20040;-63
2022/03/29 05:22:33;;;;;;;53.22;34.20;;;;;;;;;;5063468;28;20041;-64
2022/03/29 05:24:59;;;;;;;50.67;33.40;;;;;;;;;;5066279;28;20265;-63
2022/03/29 05:27:26;;;;;;;54.88;34.90;;;;;;;;;;5065612;28;20037;-62
2022/03/29 05:29:52;;;;;;;55.92;33.72;;;;;;;;;;5082181;28;20046;-63
2022/03/29 05:32:18;;;;;;;56.08;33.42;;;;;;;;;;5067135;28;20036;-63
2022/03/29 05:34:48;;;;;;;52.72;34.40;;;;;;;;;;5064456;28;20548;-63
2022/03/29 05:37:14;;;;;;;55.05;34.47;;;;;;;;;;5065403;28;20039;-63
2022/03/29 05:39:43;;;;;;;51.00;34.72;;;;;;;;;;5066784;28;20490;-63
2022/03/29 05:42:09;;;;;;;54.25;36.05;;;;;;;;;;5066540;28;20102;-62
2022/03/29 05:44:37;;;;;;;55.70;36.47;;;;;;;;;;5066738;28;20529;-64
2022/03/29 05:49:48;;;;;;;55.88;35.55;;;;;;;;;;5066235;28;20051;-63
2022/03/29 05:52:14;;;;;;;55.63;35.10;;;;;;;;;;5065768;28;20119;-63
2022/03/29 05:54:41;;;;;;;56.08;36.65;;;;;;;;;;5066586;28;20048;-63
2022/03/29 05:57:07;;;;;;;57.25;37.80;;;;;;;;;;5066219;28;20044;-62
2022/03/29 05:59:34;;;;;;;54.13;36.20;;;;;;;;;;5063148;28;20486;-62
2022/03/29 06:02:04;;;;;;;59.85;37.70;;;;;;;;;;5067308;28;20502;-63
2022/03/29 06:04:34;;;;;;;59.35;38.05;;;;;;;;;;5049556;28;20084;-62
2022/03/29 06:07:00;;;;;;;57.97;36.13;;;;;;;;;;5048885;28;20588;-63
2022/03/29 06:09:26;;;;;;;59.88;37.45;;;;;;;;;;5068021;28;20048;-63
2022/03/29 06:11:52;;;;;;;55.55;35.20;;;;;;;;;;5067205;28;20036;-63
2022/03/29 06:14:19;;;;;;;55.40;38.25;;;;;;;;;;5067582;28;20044;-64
2022/03/29 06:16:45;;;;;;;56.92;37.60;;;;;;;;;;5067204;28;20052;-62
2022/03/29 06:19:11;;;;;;;53.28;36.38;;;;;;;;;;5066085;28;20552;-63
2022/03/29 06:21:38;;;;;;;60.22;37.40;;;;;;;;;;5067901;28;20040;-63
2022/03/29 06:24:09;;;;;;;59.72;38.35;;;;;;;;;;5050125;28;20045;-64
2022/03/29 06:26:37;;;;;;;56.67;36.80;;;;;;;;;;5069862;28;20323;-62
2022/03/29 06:29:10;;;;;;;54.95;36.83;;;;;;;;;;5068415;28;20503;-63
2022/03/29 06:31:36;;;;;;;55.17;37.22;;;;;;;;;;5049204;28;20393;-63
2022/03/29 06:34:02;;;;;;;56.33;38.42;;;;;;;;;;5069780;28;20043;-63
2022/03/29 06:36:28;;;;;;;60.95;40.60;;;;;;;;;;5069282;28;20039;-63
2022/03/29 06:38:55;;;;;;;58.45;38.75;;;;;;;;;;5069259;28;20036;-63
2022/03/29 06:41:21;;;;;;;58.58;39.10;;;;;;;;;;5068100;28;20398;-62
2022/03/29 06:43:47;;;;;;;58.05;38.85;;;;;;;;;;5070491;28;20076;-61
2022/03/29 06:46:13;;;;;;;55.40;38.33;;;;;;;;;;5071922;28;20048;-62
2022/03/29 06:48:44;;;;;;;64.07;37.00;;;;;;;;;;5071480;28;20405;-61
2022/03/29 06:51:12;;;;;;;52.75;36.30;;;;;;;;;;5072504;28;20475;-61
2022/03/29 06:53:39;;;;;;;53.97;35.58;;;;;;;;;;5072429;28;20040;-62
2022/03/29 06:56:05;;;;;;;46.15;26.63;;;;;;;;;;5086653;28;20037;-61
2022/03/29 06:58:32;;;;;;;36.75;17.08;;;;;;;;;;5072530;28;20074;-61
2022/03/29 07:00:58;;;;;;;36.88;15.68;;;;;;;;;;5072373;28;20044;-61
2022/03/29 07:03:24;;;;;;;40.13;17.35;;;;;;;;;;5053730;28;20047;-62
2022/03/29 07:05:50;;;;;;;36.70;16.40;;;;;;;;;;5075125;28;20573;-62
2022/03/29 07:08:18;;;;;;;32.58;15.23;;;;;;;;;;5068890;28;20089;-62
2022/03/29 07:13:30;;;;;;;35.08;16.20;;;;;;;;;;5071107;28;20531;-62
2022/03/29 07:15:56;;;;;;;33.47;15.07;;;;;;;;;;5071240;28;20444;-62
2022/03/29 07:18:22;;;;;;;30.42;13.15;;;;;;;;;;5069956;28;20044;-62
2022/03/29 07:20:48;;;;;;;35.35;14.40;;;;;;;;;;5070343;28;20045;-61
2022/03/29 07:23:14;;;;;;;28.95;14.00;;;;;;;;;;5071679;28;20047;-62
2022/03/29 07:25:40;;;;;;;28.52;14.27;;;;;;;;;;5071561;28;20045;-62
2022/03/29 07:28:11;;;;;;;34.35;13.32;;;;;;;;;;5086985;28;20115;-62
2022/03/29 07:30:38;;;;;;;29.58;12.40;;;;;;;;;;5072044;28;20510;-62
2022/03/29 07:33:04;;;;;;;26.92;10.30;;;;;;;;;;5070256;28;20033;-62
2022/03/29 07:35:31;;;;;;;31.58;9.88;;;;;;;;;;5070880;28;20047;-62
2022/03/29 07:37:58;;;;;;;33.10;10.90;;;;;;;;;;5070481;28;20406;-62
2022/03/29 07:40:25;;;;;;;32.53;10.57;;;;;;;;;;5070094;28;20048;-61
2022/03/29 07:42:52;;;;;;;31.25;9.57;;;;;;;;;;5072817;28;20186;-62
2022/03/29 07:45:21;;;;;;;31.77;9.38;;;;;;;;;;5069828;28;20135;-62
2022/03/29 07:47:49;;;;;;;32.35;9.95;;;;;;;;;;5070004;28;20062;-61
2022/03/29 07:50:15;;;;;;;27.98;8.30;;;;;;;;;;5087402;28;20122;-62
2022/03/29 07:52:42;;;;;;;31.90;8.90;;;;;;;;;;5070435;28;20044;-62
2022/03/29 07:55:10;;;;;;;31.38;8.05;;;;;;;;;;5069981;28;20098;-63
2022/03/29 07:57:36;;;;;;;27.23;8.00;;;;;;;;;;5069608;28;20045;-63
2022/03/29 08:00:31;;;;;;;30.27;8.00;;;;;;;;;;5050872;28;20513;-61
2022/03/29 08:02:49;;;;;;;27.80;8.60;;;;;;;;;;5071050;28;20528;-62
2022/03/29 08:05:15;;;;;;;30.20;8.40;;;;;;;;;;5071586;28;20465;-62
2022/03/29 08:07:41;;;;;;;30.50;7.70;;;;;;;;;;5071347;28;20044;-62
2022/03/29 08:10:07;;;;;;;28.45;7.88;;;;;;;;;;5067547;28;20124;-62
2022/03/29 08:12:34;;;;;;;31.90;8.75;;;;;;;;;;5069939;28;20041;-62
2022/03/29 08:15:00;;;;;;;28.77;8.48;;;;;;;;;;5071154;28;20491;-62
2022/03/29 08:17:26;;;;;;;30.85;8.25;;;;;;;;;;5069482;28;20135;-62
2022/03/29 08:19:52;;;;;;;29.45;8.82;;;;;;;;;;5068277;28;20032;-62
2022/03/29 08:22:18;;;;;;;30.80;9.07;;;;;;;;;;5068264;28;20071;-61
2022/03/29 08:24:45;;;;;;;25.80;8.55;;;;;;;;;;5070703;28;20041;-61
2022/03/29 08:27:11;;;;;;;27.80;8.43;;;;;;;;;;5071150;28;20418;-62
2022/03/29 08:29:38;;;;;;;27.83;8.77;;;;;;;;;;5068017;28;20047;-62
2022/03/29 08:32:04;;;;;;;27.52;8.48;;;;;;;;;;5070542;28;20041;-61
2022/03/29 08:34:31;;;;;;;25.63;7.45;;;;;;;;;;5070624;28;20040;-62
2022/03/29 08:36:57;;;;;;;35.03;8.32;;;;;;;;;;5069372;28;20113;-62
2022/03/29 08:39:23;;;;;;;24.25;6.90;;;;;;;;;;5066984;28;20040;-63
2022/03/29 08:42:08;;;;;;;23.48;6.63;;;;;;;;;;5070755;28;20040;-62
2022/03/29 08:44:35;;;;;;;25.58;7.32;;;;;;;;;;5069108;28;20056;-61
2022/03/29 08:47:02;;;;;;;23.00;7.32;;;;;;;;;;5070675;28;20075;-61
2022/03/29 08:49:28;;;;;;;23.77;6.97;;;;;;;;;;5066259;28;20127;-62
2022/03/29 08:51:54;;;;;;;22.42;6.65;;;;;;;;;;5069025;28;20037;-62
2022/03/29 08:54:21;;;;;;;25.77;6.82;;;;;;;;;;5068843;28;20036;-62
2022/03/29 08:56:47;;;;;;;21.52;6.68;;;;;;;;;;5068487;28;20048;-62
2022/03/29 08:59:13;;;;;;;26.83;6.70;;;;;;;;;;5083495;28;20060;-62
2022/03/29 09:01:39;;;;;;;24.65;6.00;;;;;;;;;;5051908;28;20047;-63
2022/03/29 09:04:07;;;;;;;20.15;6.03;;;;;;;;;;5067503;28;20067;-64
2022/03/29 09:06:33;;;;;;;24.35;5.63;;;;;;;;;;5066747;28;20052;-64
2022/03/29 09:08:59;;;;;;;26.48;5.60;;;;;;;;;;5066666;28;20048;-63
2022/03/29 09:11:25;;;;;;;25.63;5.75;;;;;;;;;;5068178;28;20025;-62
2022/03/29 09:14:04;;;;;;;23.67;5.05;;;;;;;;;;5067900;28;20040;-63
2022/03/29 09:16:34;;;;;;;27.45;4.60;;;;;;;;;;5067865;28;20128;-62
2022/03/29 09:19:01;;;;;;;18.95;4.70;;;;;;;;;;5066775;28;20054;-64
2022/03/29 09:21:28;;;;;;;26.23;4.85;;;;;;;;;;5047454;28;20047;-62
2022/03/29 09:24:23;;;;;;;22.73;4.93;;;;;;;;;;5066676;28;20135;-62
2022/03/29 09:26:54;;;;;;;23.33;5.53;;;;;;;;;;5067335;28;20044;-64
2022/03/29 09:29:21;;;;;;;27.48;5.43;;;;;;;;;;5068181;28;20059;-64
2022/03/29 09:31:50;;;;;;;22.05;4.78;;;;;;;;;;5067543;28;20478;-63
2022/03/29 09:34:20;;;;;;;24.95;4.97;;;;;;;;;;5067886;28;20044;-63
2022/03/29 09:36:51;;;;;;;25.38;4.97;;;;;;;;;;5083295;28;20823;-62
2022/03/29 09:39:29;;;;;;;25.55;5.45;;;;;;;;;;5066386;28;20174;-62
2022/03/29 09:41:59;;;;;;;26.88;5.20;;;;;;;;;;5066744;28;20041;-64
2022/03/29 09:44:33;;;;;;;19.45;4.95;;;;;;;;;;5066319;28;20071;-62
2022/03/29 09:47:07;;;;;;;22.77;5.00;;;;;;;;;;5067829;28;20123;-63
2022/03/29 09:49:53;;;;;;;20.45;5.22;;;;;;;;;;5067689;28;20045;-63
2022/03/29 09:52:20;;;;;;;21.33;5.20;;;;;;;;;;5049464;28;20040;-63
2022/03/29 09:55:05;;;;;;;27.38;5.55;;;;;;;;;;5067493;28;20494;-63
2022/03/29 09:57:57;;;;;;;23.90;5.60;;;;;;;;;;5069880;28;20056;-62
2022/03/29 10:00:30;;;;;;;19.98;5.55;;;;;;;;;;5069558;28;20464;-64
2022/03/29 10:02:57;;;;;;;20.25;5.38;;;;;;;;;;5071518;28;20086;-64
2022/03/29 10:05:24;;;;;;;23.95;6.22;;;;;;;;;;5069817;28;20052;-63
2022/03/29 10:10:48;;;;;;;24.50;6.22;;;;;;;;;;5067386;28;20045;-65
2022/03/29 10:13:16;;;;;;;21.02;5.15;;;;;;;;;;5069830;28;20119;-62
2022/03/29 10:15:42;;;;;;;21.08;5.75;;;;;;;;;;5069847;28;20072;-64
2022/03/29 10:18:08;;;;;;;22.23;6.25;;;;;;;;;;5071378;28;20028;-63
2022/03/29 10:20:35;;;;;;;23.90;6.60;;;;;;;;;;5071612;28;20040;-63
2022/03/29 10:23:02;;;;;;;23.38;6.53;;;;;;;;;;5053321;28;20040;-64
2022/03/29 10:25:29;;;;;;;23.58;6.55;;;;;;;;;;5052915;28;20044;-64
2022/03/29 10:27:56;;;;;;;23.42;6.97;;;;;;;;;;5069940;28;20398;-63
2022/03/29 10:30:32;;;;;;;21.52;5.32;;;;;;;;;;5069860;28;20039;-63
2022/03/29 10:33:17;;;;;;;26.63;6.55;;;;;;;;;;5069366;28;20046;-63
2022/03/29 10:36:05;;;;;;;25.83;6.70;;;;;;;;;;5070912;28;20173;-63
2022/03/29 10:38:44;;;;;;;25.58;6.22;;;;;;;;;;5071046;28;20376;-63
2022/03/29 10:41:28;;;;;;;21.55;6.32;;;;;;;;;;5069367;28;20040;-63
2022/03/29 10:43:56;;;;;;;26.20;6.30;;;;;;;;;;5051038;28;20395;-64
2022/03/29 10:46:25;;;;;;;26.10;6.65;;;;;;;;;;5070895;28;20093;-63
2022/03/29 10:49:10;;;;;;;25.75;5.97;;;;;;;;;;5070825;28;20032;-64
2022/03/29 10:51:36;;;;;;;21.35;5.75;;;;;;;;;;5070577;28;20157;-63
2022/03/29 10:54:21;;;;;;;24.02;5.82;;;;;;;;;;5069391;28;20120;-63
2022/03/29 10:57:01;;;;;;;23.63;6.57;;;;;;;;;;5069272;28;20051;-63
2022/03/29 10:59:28;;;;;;;23.33;5.78;;;;;;;;;;5070485;28;20055;-63
2022/03/29 11:02:20;;;;;;;24.00;6.22;;;;;;;;;;5070543;28;20146;-63
2022/03/29 11:05:05;;;;;;;21.33;5.70;;;;;;;;;;5067491;28;20060;-64
2022/03/29 11:07:35;;;;;;;27.10;6.15;;;;;;;;;;5069070;28;20048;-63
2022/03/29 11:10:12;;;;;;;26.13;6.63;;;;;;;;;;5068984;28;20044;-64
2022/03/29 11:12:39;;;;;;;26.65;5.95;;;;;;;;;;5070388;28;20394;-63
2022/03/29 11:15:24;;;;;;;25.08;6.43;;;;;;;;;;5069226;28;20036;-63
2022/03/29 11:17:54;;;;;;;26.00;6.78;;;;;;;;;;5051924;28;20072;-63
2022/03/29 11:20:33;;;;;;;22.67;5.78;;;;;;;;;;5069042;28;20071;-63
2022/03/29 11:23:07;;;;;;;31.42;7.63;;;;;;;;;;5068990;28;20437;-64
2022/03/29 11:25:45;;;;;;;26.75;7.57;;;;;;;;;;5068197;28;20049;-64
2022/03/29 11:28:16;;;;;;;28.13;8.73;;;;;;;;;;5051444;28;20044;-64
2022/03/29 11:30:42;;;;;;;21.23;7.55;;;;;;;;;;5070102;28;20569;-63
2022/03/29 11:33:09;;;;;;;22.50;8.15;;;;;;;;;;5069875;28;20033;-63
2022/03/29 11:35:37;;;;;;;23.20;8.25;;;;;;;;;;5069935;28;20041;-64
2022/03/29 11:38:08;;;;;;;22.77;8.10;;;;;;;;;;5052041;28;20040;-63
2022/03/29 11:40:34;;;;;;;24.05;8.73;;;;;;;;;;5048484;28;20044;-64
2022/03/29 11:43:04;;;;;;;22.33;8.65;;;;;;;;;;5069622;28;20052;-61
2022/03/29 11:45:31;;;;;;;24.67;9.38;;;;;;;;;;5069672;28;20110;-62
2022/03/29 11:47:57;;;;;;;25.45;8.90;;;;;;;;;;5068617;28;20098;-63
2022/03/29 11:50:29;;;;;;;23.50;8.35;;;;;;;;;;5068126;28;20046;-64
2022/03/29 11:52:55;;;;;;;29.77;9.93;;;;;;;;;;5069618;28;20032;-62
2022/03/29 11:55:22;;;;;;;26.13;8.13;;;;;;;;;;5068151;28;20669;-63
2022/03/29 11:57:48;;;;;;;29.60;9.20;;;;;;;;;;5068041;28;20090;-63
2022/03/29 12:00:24;;;;;;;24.45;7.93;;;;;;;;;;5067180;28;20064;-64
2022/03/29 12:02:51;;;;;;;26.83;7.93;;;;;;;;;;5081439;28;20124;-64
2022/03/29 12:05:23;;;;;;;26.98;7.90;;;;;;;;;;5069343;28;20506;-63
2022/03/29 12:07:55;;;;;;;28.50;8.40;;;;;;;;;;5067784;28;20033;-62
2022/03/29 12:10:28;;;;;;;23.67;8.05;;;;;;;;;;5069307;28;20037;-63
2022/03/29 12:12:54;;;;;;;27.63;9.00;;;;;;;;;;5067339;28;20570;-63
2022/03/29 12:15:21;;;;;;;22.42;8.32;;;;;;;;;;5067778;28;20053;-63
2022/03/29 12:20:40;;;;;;;;;;;;;;;;;;5067787;28;20044;-64
2022/03/29 12:23:16;;;;;;;24.75;8.80;;;;;;;;;;5067533;28;19923;-62
2022/03/29 12:25:42;;;;;;;26.48;9.23;;;;;;;;;;5068667;28;20043;-64
2022/03/29 12:28:08;;;;;;;24.90;9.13;;;;;;;;;;5069091;28;20098;-63
2022/03/29 12:30:35;;;;;;;25.55;9.82;;;;;;;;;;5068873;28;20048;-61
2022/03/29 12:33:01;;;;;;;25.60;8.90;;;;;;;;;;5050726;28;20040;-63
2022/03/29 12:35:30;;;;;;;21.20;8.13;;;;;;;;;;5067042;28;20028;-63
2022/03/29 12:38:03;;;;;;;23.08;8.75;;;;;;;;;;5067573;28;20446;-63
2022/03/29 12:40:29;;;;;;;24.00;8.55;;;;;;;;;;5067263;28;20442;-63
2022/03/29 12:43:06;;;;;;;24.80;8.70;;;;;;;;;;5068886;28;20119;-63
2022/03/29 12:45:36;;;;;;;25.77;8.48;;;;;;;;;;5066550;28;20399;-63
2022/03/29 12:48:03;;;;;;;27.27;8.88;;;;;;;;;;5065387;28;20147;-62
2022/03/29 12:50:29;;;;;;;22.60;8.23;;;;;;;;;;5067118;28;20482;-63
2022/03/29 12:53:03;;;;;;;22.90;8.10;;;;;;;;;;5067264;28;20041;-61
2022/03/29 12:55:31;;;;;;;28.75;7.97;;;;;;;;;;5067107;28;20116;-62
2022/03/29 12:58:02;;;;;;;29.52;8.35;;;;;;;;;;5068737;28;20059;-62
2022/03/29 13:00:36;;;;;;;22.40;7.88;;;;;;;;;;5067781;28;20119;-61
2022/03/29 13:03:07;;;;;;;27.25;7.85;;;;;;;;;;5069629;28;20123;-62
2022/03/29 13:05:36;;;;;;;21.60;6.68;;;;;;;;;;5068411;28;20040;-63
2022/03/29 13:08:03;;;;;;;22.30;7.60;;;;;;;;;;5071086;28;20063;-63
2022/03/29 13:10:32;;;;;;;25.27;7.97;;;;;;;;;;5068322;28;20028;-63
2022/03/29 13:13:13;;;;;;;20.42;7.00;;;;;;;;;;5069170;28;20040;-63
2022/03/29 13:15:56;;;;;;;21.95;6.88;;;;;;;;;;5067889;28;20486;-63
2022/03/29 13:18:22;;;;;;;23.30;7.60;;;;;;;;;;5067996;28;20048;-63
2022/03/29 13:20:49;;;;;;;27.48;7.82;;;;;;;;;;5069502;28;20083;-63
2022/03/29 13:23:32;;;;;;;21.40;7.55;;;;;;;;;;5068611;28;20052;-62
2022/03/29 13:25:58;;;;;;;23.95;7.28;;;;;;;;;;5069352;28;20189;-63
2022/03/29 13:28:26;;;;;;;21.20;6.70;;;;;;;;;;5070539;28;20120;-61
2022/03/29 13:30:52;;;;;;;26.30;6.88;;;;;;;;;;5070269;28;20040;-63
2022/03/29 13:33:19;;;;;;;25.45;7.95;;;;;;;;;;5069603;28;20394;-62
2022/03/29 13:35:46;;;;;;;25.10;7.85;;;;;;;;;;5052730;28;20048;-62
2022/03/29 13:38:12;;;;;;;28.15;7.53;;;;;;;;;;5069327;28;20079;-61
2022/03/29 13:40:38;;;;;;;21.15;7.40;;;;;;;;;;5069756;28;20044;-63
2022/03/29 13:43:04;;;;;;;22.30;7.07;;;;;;;;;;5066085;28;20068;-62
2022/03/29 13:45:31;;;;;;;26.17;7.45;;;;;;;;;;5067965;28;20453;-63
2022/03/29 13:47:58;;;;;;;23.05;7.45;;;;;;;;;;5066674;28;20131;-63
2022/03/29 13:50:24;;;;;;;22.73;7.63;;;;;;;;;;5065818;28;20482;-63
2022/03/29 13:52:51;;;;;;;24.45;7.78;;;;;;;;;;5070453;28;20043;-63
2022/03/29 13:55:17;;;;;;;20.05;7.13;;;;;;;;;;5070585;28;20086;-62
2022/03/29 13:57:44;;;;;;;24.52;7.13;;;;;;;;;;5051840;28;20041;-62
2022/03/29 14:00:12;;;;;;;19.85;7.20;;;;;;;;;;5070522;28;20040;-62
2022/03/29 14:02:38;;;;;;;26.58;7.13;;;;;;;;;;5069356;28;20559;-62
2022/03/29 14:05:04;;;;;;;20.10;6.63;;;;;;;;;;5068835;28;20033;-62
2022/03/29 14:07:32;;;;;;;25.88;7.43;;;;;;;;;;5068550;28;20044;-62
2022/03/29 14:09:58;;;;;;;20.45;6.50;;;;;;;;;;5069432;28;20423;-63
2022/03/29 14:12:24;;;;;;;22.38;6.22;;;;;;;;;;5050847;28;20144;-61
2022/03/29 14:14:50;;;;;;;19.85;6.22;;;;;;;;;;5068983;28;20487;-61
2022/03/29 14:17:17;;;;;;;24.42;5.85;;;;;;;;;;5067127;28;20072;-63
2022/03/29 14:19:45;;;;;;;21.08;6.20;;;;;;;;;;5081679;28;20563;-63
2022/03/29 14:22:14;;;;;;;19.95;6.20;;;;;;;;;;5067358;28;20041;-63
2022/03/29 14:24:40;;;;;;;16.50;5.28;;;;;;;;;;5067067;28;20510;-61
2022/03/29 14:27:06;;;;;;;20.33;5.90;;;;;;;;;;5066658;28;20044;-62
2022/03/29 14:29:32;;;;;;;20.20;6.07;;;;;;;;;;5068655;28;20119;-62
2022/03/29 14:32:02;;;;;;;24.23;6.38;;;;;;;;;;5066820;28;20093;-62
2022/03/29 14:34:28;;;;;;;21.70;6.20;;;;;;;;;;5067913;28;20090;-61
2022/03/29 14:36:55;;;;;;;18.17;5.60;;;;;;;;;;5066819;28;20044;-61
2022/03/29 14:39:21;;;;;;;27.92;6.13;;;;;;;;;;5066085;28;20048;-62
2022/03/29 14:41:48;;;;;;;22.23;5.35;;;;;;;;;;5068688;28;20097;-62
2022/03/29 14:44:14;;;;;;;21.90;6.07;;;;;;;;;;5070213;28;20591;-62